Time;durP1;ratioP1;P1;durP2;ratioP2;P2;SDS_P1;SDS_P2;PMS_P1;PMS_P2;Temp;Humidity;BMP_temperature;BMP_pressure;BME280_temperature;BME280_humidity;BME280_pressure;Samples;Min_cycle;Max_cycle;Signal;HPM_P1;HPM_P2
2022/12/13 00:01:50;;;;;;;18.37;8.70;;;-11.50;94.10;;;;;;4198273;28;20184;-64
2022/12/13 00:03:53;;;;;;;17.23;8.23;;;-11.50;94.20;;;;;;4196636;28;20205;-65
2022/12/13 00:05:54;;;;;;;19.40;8.55;;;-11.50;94.30;;;;;;4198009;28;20717;-66
2022/12/13 00:07:54;;;;;;;15.97;7.90;;;-11.60;94.30;;;;;;4197451;28;20223;-66
2022/12/13 00:09:55;;;;;;;15.50;7.47;;;-11.50;94.90;;;;;;4198083;28;20175;-66
2022/12/13 00:11:56;;;;;;;18.87;8.47;;;-11.50;95.40;;;;;;4197664;28;20196;-66
2022/12/13 00:13:56;;;;;;;12.47;6.47;;;-11.60;95.20;;;;;;4197305;28;20204;-66
2022/12/13 00:16:07;;;;;;;13.60;6.43;;;-11.50;95.80;;;;;;4198030;28;20200;-66
2022/12/13 00:18:08;;;;;;;7.00;4.95;;;-11.50;95.60;;;;;;4198489;28;20168;-65
2022/12/13 00:20:09;;;;;;;10.37;5.37;;;-11.50;95.50;;;;;;4197964;28;20272;-65
2022/12/13 00:22:10;;;;;;;9.32;4.57;;;-11.50;95.70;;;;;;4197210;28;20183;-66
2022/12/13 00:24:10;;;;;;;7.23;3.93;;;-11.50;95.70;;;;;;4196557;28;20599;-65
2022/12/13 00:26:16;;;;;;;10.90;4.60;;;-11.50;96.50;;;;;;4196598;28;20209;-66
2022/12/13 00:28:17;;;;;;;7.55;3.55;;;-11.40;96.50;;;;;;4197783;28;20191;-66
2022/12/13 00:30:18;;;;;;;10.57;4.10;;;-11.40;96.30;;;;;;4197803;28;20195;-65
2022/12/13 00:32:18;;;;;;;5.87;3.63;;;-11.40;96.00;;;;;;4197394;28;20215;-65
2022/12/13 00:34:19;;;;;;;8.23;4.20;;;-11.50;95.80;;;;;;4197571;28;20218;-65
2022/12/13 00:36:20;;;;;;;8.80;4.33;;;-11.40;95.60;;;;;;4197761;28;20254;-66
2022/12/13 00:38:21;;;;;;;7.77;4.30;;;-11.40;95.70;;;;;;4197380;28;20206;-65
2022/12/13 00:40:22;;;;;;;6.68;3.90;;;-11.40;95.90;;;;;;4196296;28;20851;-65
2022/12/13 00:42:23;;;;;;;10.80;4.30;;;-11.40;95.70;;;;;;4196820;28;20319;-65
2022/12/13 00:44:24;;;;;;;7.73;3.87;;;-11.40;95.60;;;;;;4197182;28;20207;-65
2022/12/13 00:46:25;;;;;;;7.30;3.67;;;-11.50;95.60;;;;;;4196206;28;20207;-67
2022/12/13 00:48:27;;;;;;;8.02;4.68;;;-11.50;95.60;;;;;;4197295;28;20260;-66
2022/12/13 00:50:27;;;;;;;7.68;3.85;;;-11.50;95.30;;;;;;4197132;28;20184;-65
2022/12/13 00:52:28;;;;;;;6.93;3.47;;;-11.50;95.40;;;;;;4196688;28;20215;-65
2022/12/13 00:54:29;;;;;;;5.00;3.07;;;-11.50;95.60;;;;;;4195758;28;20650;-65
2022/12/13 00:56:32;;;;;;;5.07;3.10;;;-11.50;95.50;;;;;;4195718;28;20469;-66
2022/12/13 00:58:34;;;;;;;7.15;4.22;;;-11.60;95.40;;;;;;4197146;28;20264;-66
2022/12/13 01:00:35;;;;;;;8.13;4.18;;;-11.60;95.00;;;;;;4196557;28;20215;-65
2022/12/13 01:02:36;;;;;;;5.03;2.70;;;-11.70;95.70;;;;;;4196569;28;20681;-65
2022/12/13 01:04:36;;;;;;;9.23;3.93;;;-11.70;95.30;;;;;;4196041;28;20592;-65
2022/12/13 01:06:42;;;;;;;8.20;4.70;;;-11.80;95.60;;;;;;4196979;28;20588;-66
2022/12/13 01:08:44;;;;;;;7.18;3.70;;;-11.70;96.10;;;;;;4196236;28;20180;-65
2022/12/13 01:10:46;;;;;;;12.85;6.20;;;-11.70;96.00;;;;;;4196881;28;20219;-65
2022/12/13 01:12:47;;;;;;;10.68;5.55;;;-11.70;96.40;;;;;;4196213;28;20183;-65
2022/12/13 01:14:47;;;;;;;7.47;3.23;;;-11.70;97.00;;;;;;4197438;28;20265;-66
2022/12/13 01:16:48;;;;;;;7.57;4.37;;;-11.60;97.30;;;;;;4197126;28;20203;-65
2022/12/13 01:18:49;;;;;;;4.77;2.73;;;-11.70;97.10;;;;;;4179276;28;20203;-68
2022/12/13 01:20:58;;;;;;;6.03;2.80;;;-11.70;96.70;;;;;;4195890;28;20176;-66
2022/12/13 01:22:59;;;;;;;7.25;3.65;;;-11.60;96.60;;;;;;4195996;28;20191;-66
2022/12/13 01:24:59;;;;;;;6.30;3.83;;;-11.70;96.60;;;;;;4195316;28;20183;-66
2022/12/13 01:27:00;;;;;;;5.57;3.17;;;-11.70;96.00;;;;;;4196589;28;20183;-66
2022/12/13 01:29:01;;;;;;;7.87;3.80;;;-11.70;95.70;;;;;;4195295;28;20274;-66
2022/12/13 01:31:12;;;;;;;6.43;3.40;;;-11.70;95.90;;;;;;4196804;28;20189;-65
2022/12/13 01:33:12;;;;;;;8.05;3.65;;;-11.70;95.80;;;;;;4196318;28;20196;-65
2022/12/13 01:35:13;;;;;;;7.10;3.27;;;-11.70;95.80;;;;;;4196975;28;20190;-67
2022/12/13 01:37:16;;;;;;;7.33;4.17;;;-11.70;96.40;;;;;;4196654;28;20207;-65
2022/12/13 01:39:19;;;;;;;6.38;4.32;;;-11.60;96.40;;;;;;4185008;28;20263;-65
2022/12/13 01:41:20;;;;;;;8.43;3.35;;;-11.70;95.90;;;;;;4179822;28;20176;-66
2022/12/13 01:43:21;;;;;;;9.77;3.90;;;-11.70;95.70;;;;;;4179218;28;20622;-66
2022/12/13 01:45:27;;;;;;;8.70;3.70;;;-11.80;95.60;;;;;;4190528;28;20202;-66
2022/12/13 01:47:43;;;;;;;6.47;3.75;;;-11.80;95.60;;;;;;4195186;28;20203;-66
2022/12/13 01:49:44;;;;;;;8.10;4.20;;;-11.90;95.50;;;;;;4194927;28;20172;-65
2022/12/13 01:51:54;;;;;;;8.33;4.77;;;-11.80;95.70;;;;;;4196492;28;20180;-65
2022/12/13 01:54:00;;;;;;;7.55;3.78;;;-11.80;95.60;;;;;;4194701;28;20663;-66
2022/12/13 01:56:07;;;;;;;9.73;4.90;;;-11.80;95.70;;;;;;4195691;28;20295;-66
2022/12/13 01:58:10;;;;;;;11.30;5.90;;;-11.90;95.80;;;;;;4196314;28;20171;-66
2022/12/13 02:00:12;;;;;;;10.30;6.22;;;-12.00;95.80;;;;;;4194809;28;20180;-66
2022/12/13 02:02:14;;;;;;;12.00;6.05;;;-11.90;95.90;;;;;;4194166;28;20188;-69
2022/12/13 02:04:43;;;;;;;11.55;5.65;;;-11.90;96.30;;;;;;4196197;28;20203;-65
2022/12/13 02:06:44;;;;;;;11.95;5.90;;;-12.00;96.20;;;;;;4194638;28;20180;-66
2022/12/13 02:08:45;;;;;;;9.55;4.80;;;-11.90;96.30;;;;;;4194796;28;20184;-66
2022/12/13 02:10:46;;;;;;;7.67;4.67;;;-11.80;96.30;;;;;;4194501;28;20186;-66
2022/12/13 02:12:47;;;;;;;7.33;3.60;;;-11.80;96.10;;;;;;4195420;28;20992;-65
2022/12/13 02:14:48;;;;;;;8.93;4.30;;;-11.80;95.90;;;;;;4194894;28;20562;-66
2022/12/13 02:17:04;;;;;;;10.00;5.00;;;-11.70;96.00;;;;;;4194680;28;20211;-65
2022/12/13 02:19:41;;;;;;;9.50;4.57;;;-11.80;95.00;;;;;;4194663;28;20188;-66
2022/12/13 02:21:47;;;;;;;10.43;5.47;;;-11.90;94.10;;;;;;4194488;28;20681;-65
2022/12/13 02:24:38;;;;;;;16.58;4.95;;;-12.00;93.80;;;;;;4195132;28;20203;-65
2022/12/13 02:26:44;;;;;;;9.05;5.47;;;-12.00;93.90;;;;;;4191594;28;20190;-65
2022/12/13 02:29:27;;;;;;;7.90;4.85;;;-12.10;94.20;;;;;;4196077;28;20183;-65
2022/12/13 02:31:31;;;;;;;9.90;4.28;;;-12.20;94.50;;;;;;4196136;28;20200;-66
2022/12/13 02:33:51;;;;;;;6.90;3.97;;;-12.00;96.50;;;;;;4193831;28;20253;-65
2022/12/13 02:36:15;;;;;;;7.53;4.05;;;-12.00;96.80;;;;;;4195649;28;20268;-65
2022/12/13 02:38:57;;;;;;;7.68;4.53;;;-12.00;96.20;;;;;;4195619;28;20186;-66
2022/12/13 02:41:16;;;;;;;6.35;3.35;;;-12.00;94.70;;;;;;4191105;28;20321;-65
2022/12/13 02:43:26;;;;;;;5.75;3.67;;;-12.10;94.20;;;;;;4193849;28;20195;-65
2022/12/13 02:45:53;;;;;;;8.43;4.50;;;-12.10;94.10;;;;;;4194582;28;20620;-66
2022/12/13 02:47:56;;;;;;;9.48;4.30;;;-12.10;93.70;;;;;;4195661;28;20282;-65
2022/12/13 02:50:01;;;;;;;4.88;3.15;;;-12.20;94.30;;;;;;4194854;28;20183;-65
2022/12/13 02:52:06;;;;;;;4.00;2.45;;;-12.20;94.80;;;;;;4178187;28;20630;-65
2022/12/13 02:54:06;;;;;;;6.47;3.10;;;-12.10;94.90;;;;;;4194532;28;20689;-65
2022/12/13 02:56:07;;;;;;;6.93;3.03;;;-12.10;94.90;;;;;;4195682;28;20302;-66
2022/12/13 02:58:13;;;;;;;8.80;3.70;;;-12.10;95.10;;;;;;4195996;28;20172;-66
2022/12/13 03:00:19;;;;;;;5.43;2.90;;;-12.10;95.50;;;;;;4195846;28;20172;-66
2022/12/13 03:02:32;;;;;;;6.85;3.28;;;-12.10;94.90;;;;;;4193928;28;20693;-65
2022/12/13 03:06:28;;;;;;;9.48;3.63;;;-12.20;94.60;;;;;;4194468;28;20187;-66
2022/12/13 03:07:24;;;;;;;6.00;3.22;;;-12.10;94.50;;;;;;4195103;28;20211;-66
2022/12/13 03:10:05;;;;;;;6.40;3.85;;;-12.00;94.60;;;;;;4191430;28;20270;-65
2022/12/13 03:14:34;;;;;;;5.53;3.38;;;-12.00;93.90;;;;;;4199898;28;20695;-66
2022/12/13 03:16:45;;;;;;;3.65;2.97;;;-12.10;93.80;;;;;;4198474;28;20950;-66
2022/12/13 03:18:46;;;;;;;5.80;3.20;;;-12.10;94.10;;;;;;4197911;28;20198;-67
2022/12/13 03:20:51;;;;;;;3.75;2.55;;;-12.20;94.10;;;;;;4197801;28;20175;-67
2022/12/13 03:22:53;;;;;;;10.18;4.07;;;-12.30;94.10;;;;;;4197031;28;20232;-67
2022/12/13 03:24:54;;;;;;;5.30;3.47;;;-12.20;94.30;;;;;;4197939;28;20180;-67
2022/12/13 03:26:55;;;;;;;9.67;3.60;;;-12.20;93.60;;;;;;4197163;28;20202;-65
2022/12/13 03:28:56;;;;;;;6.07;3.10;;;-12.20;93.80;;;;;;4197297;28;20203;-65
2022/12/13 03:30:56;;;;;;;3.97;2.60;;;-12.20;94.30;;;;;;4182453;28;20180;-65
2022/12/13 03:32:57;;;;;;;7.30;3.70;;;-12.30;94.20;;;;;;4181428;28;20271;-65
2022/12/13 03:34:58;;;;;;;5.77;2.50;;;-12.20;95.10;;;;;;4181021;28;20253;-65
2022/12/13 03:36:58;;;;;;;7.97;3.13;;;-12.20;95.40;;;;;;4182271;28;20265;-65
2022/12/13 03:38:59;;;;;;;4.83;2.70;;;-12.20;94.90;;;;;;4184273;28;20200;-68
2022/12/13 03:41:05;;;;;;;6.80;3.33;;;-12.20;94.20;;;;;;4180795;28;20740;-65
2022/12/13 03:43:06;;;;;;;4.63;3.35;;;-12.30;94.00;;;;;;4180163;28;20255;-65
2022/12/13 03:45:07;;;;;;;5.77;2.97;;;-12.30;93.70;;;;;;4180562;28;20659;-65
2022/12/13 03:47:08;;;;;;;7.05;3.60;;;-12.30;94.00;;;;;;4182249;28;20184;-65
2022/12/13 03:49:08;;;;;;;6.40;2.87;;;-12.30;94.50;;;;;;4182022;28;20216;-65
2022/12/13 03:51:09;;;;;;;10.27;3.10;;;-12.20;94.90;;;;;;4181881;28;20188;-65
2022/12/13 03:53:10;;;;;;;5.37;3.03;;;-12.20;95.10;;;;;;4181428;28;20208;-65
2022/12/13 03:55:10;;;;;;;5.73;2.43;;;-12.10;94.90;;;;;;4180864;28;20183;-65
2022/12/13 03:57:14;;;;;;;7.97;2.90;;;-12.00;95.10;;;;;;4180703;28;20208;-65
2022/12/13 03:59:15;;;;;;;5.10;3.10;;;-12.00;94.80;;;;;;4183066;28;20255;-67
2022/12/13 04:01:16;;;;;;;6.23;3.80;;;-12.00;94.70;;;;;;4182379;28;20207;-67
2022/12/13 04:03:17;;;;;;;3.75;2.17;;;-12.00;94.80;;;;;;4181138;28;20196;-67
2022/12/13 04:05:18;;;;;;;5.57;3.10;;;-12.00;94.60;;;;;;4181474;28;20192;-67
2022/12/13 04:07:18;;;;;;;5.57;3.10;;;-12.00;94.30;;;;;;4180120;28;20234;-67
2022/12/13 04:09:19;;;;;;;7.53;4.03;;;-12.00;94.20;;;;;;4179755;28;20184;-67
2022/12/13 04:13:39;;;;;;;4.25;2.13;;;-12.10;94.00;;;;;;4180545;28;20219;-67
2022/12/13 04:15:47;;;;;;;4.23;2.40;;;-12.10;93.70;;;;;;4180490;28;20565;-67
2022/12/13 04:17:48;;;;;;;4.72;2.83;;;-12.10;93.90;;;;;;4180379;28;20650;-67
2022/12/13 04:19:48;;;;;;;7.77;3.87;;;-12.20;93.70;;;;;;4180660;28;20276;-67
2022/12/13 04:21:50;;;;;;;7.23;3.23;;;-12.30;93.50;;;;;;4179465;28;20684;-67
2022/12/13 04:23:51;;;;;;;5.40;2.90;;;-12.30;94.00;;;;;;4179084;28;20200;-67
2022/12/13 04:25:52;;;;;;;6.97;4.23;;;-12.30;94.00;;;;;;4181224;28;20242;-67
2022/12/13 04:27:53;;;;;;;7.90;3.03;;;-12.30;94.00;;;;;;4180998;28;20635;-67
2022/12/13 04:29:53;;;;;;;3.77;2.57;;;-12.20;93.80;;;;;;4181399;28;20204;-67
2022/12/13 04:31:54;;;;;;;5.57;3.03;;;-12.30;93.70;;;;;;4181773;28;20181;-67
2022/12/13 04:33:55;;;;;;;3.43;2.60;;;-12.30;93.60;;;;;;4181797;28;20826;-67
2022/12/13 04:35:55;;;;;;;7.43;3.03;;;-12.30;93.80;;;;;;4183326;28;20701;-66
2022/12/13 04:37:56;;;;;;;4.90;2.70;;;-12.20;94.10;;;;;;4184468;28;20181;-64
2022/12/13 04:39:57;;;;;;;5.47;3.63;;;-12.20;94.10;;;;;;4181941;28;20189;-65
2022/12/13 04:41:57;;;;;;;5.83;4.07;;;-12.30;94.70;;;;;;4182191;28;20177;-65
2022/12/13 04:43:58;;;;;;;4.77;2.93;;;-12.30;94.50;;;;;;4181617;28;20261;-65
2022/12/13 04:45:59;;;;;;;7.07;3.83;;;-12.30;94.90;;;;;;4182519;28;20195;-65
2022/12/13 04:47:59;;;;;;;5.93;3.73;;;-12.30;94.90;;;;;;4182635;28;20249;-65
2022/12/13 04:50:00;;;;;;;5.63;3.80;;;-12.30;94.80;;;;;;4182117;28;20195;-65
2022/12/13 04:52:02;;;;;;;12.77;3.17;;;-12.20;95.00;;;;;;4182622;28;20242;-65
2022/12/13 04:54:03;;;;;;;6.47;2.97;;;-12.20;95.10;;;;;;4182423;28;20232;-66
2022/12/13 04:56:04;;;;;;;7.60;3.83;;;-12.20;95.20;;;;;;4180305;28;20639;-66
2022/12/13 04:58:05;;;;;;;6.45;3.60;;;-12.20;95.00;;;;;;4180476;28;20177;-65
2022/12/13 05:00:09;;;;;;;8.33;3.67;;;-12.20;94.60;;;;;;4178758;28;20189;-66
2022/12/13 05:02:10;;;;;;;5.10;2.70;;;-12.20;94.60;;;;;;4193622;28;20175;-65
2022/12/13 05:04:11;;;;;;;6.53;3.17;;;-12.30;94.40;;;;;;4196344;28;20674;-66
2022/12/13 05:06:13;;;;;;;4.93;3.00;;;-12.30;94.40;;;;;;4196603;28;20179;-65
2022/12/13 05:08:14;;;;;;;5.28;3.38;;;-12.30;94.30;;;;;;4195133;28;20730;-65
2022/12/13 05:10:15;;;;;;;5.07;2.80;;;-12.40;94.50;;;;;;4195249;28;20188;-66
2022/12/13 05:12:16;;;;;;;5.27;3.23;;;-12.40;94.40;;;;;;4196390;28;20192;-65
2022/12/13 05:14:16;;;;;;;3.97;2.50;;;-12.30;94.60;;;;;;4197250;28;20221;-66
2022/12/13 05:16:17;;;;;;;6.00;3.60;;;-12.30;94.30;;;;;;4195206;28;20706;-66
2022/12/13 05:18:18;;;;;;;5.53;2.97;;;-12.30;94.80;;;;;;4195578;28;20253;-66
2022/12/13 05:20:18;;;;;;;5.03;2.87;;;-12.40;94.40;;;;;;4188623;28;20175;-65
2022/12/13 05:22:19;;;;;;;6.70;3.47;;;-12.40;94.10;;;;;;4195608;28;20176;-66
2022/12/13 05:24:20;;;;;;;9.47;3.40;;;-12.30;93.90;;;;;;4194694;28;20195;-65
2022/12/13 05:26:20;;;;;;;10.10;3.97;;;-12.40;93.60;;;;;;4196198;28;20191;-65
2022/12/13 05:28:24;;;;;;;7.10;3.83;;;-12.50;93.20;;;;;;4178278;28;20659;-65
2022/12/13 05:30:25;;;;;;;5.93;2.90;;;-12.60;93.10;;;;;;4195386;28;20183;-69
2022/12/13 05:32:25;;;;;;;7.97;3.30;;;-12.50;93.50;;;;;;4195572;28;20198;-66
2022/12/13 05:34:26;;;;;;;7.03;3.33;;;-12.60;93.40;;;;;;4178638;28;20982;-67
2022/12/13 05:36:27;;;;;;;4.63;2.90;;;-12.60;93.30;;;;;;4194540;28;20282;-67
2022/12/13 05:38:28;;;;;;;7.73;4.43;;;-12.50;93.80;;;;;;4196045;28;20176;-67
2022/12/13 05:40:31;;;;;;;8.00;3.42;;;-12.50;93.80;;;;;;4195798;28;20278;-67
2022/12/13 05:42:32;;;;;;;5.38;2.88;;;-12.50;94.60;;;;;;4193968;28;20717;-67
2022/12/13 05:44:32;;;;;;;6.80;3.80;;;-12.50;94.80;;;;;;4189146;28;20200;-67
2022/12/13 05:46:33;;;;;;;6.77;3.17;;;-12.60;94.90;;;;;;4179246;28;20271;-66
2022/12/13 05:48:34;;;;;;;4.60;3.00;;;-12.50;95.30;;;;;;4177938;28;20655;-66
2022/12/13 05:50:35;;;;;;;18.23;7.20;;;-12.40;95.00;;;;;;4179304;28;20612;-67
2022/12/13 05:52:36;;;;;;;21.05;8.20;;;-12.40;95.00;;;;;;4177334;28;20185;-67
2022/12/13 05:54:37;;;;;;;25.05;9.80;;;-12.40;94.90;;;;;;4179411;28;20231;-66
2022/12/13 05:56:38;;;;;;;24.77;8.67;;;-12.40;94.80;;;;;;4179397;28;20619;-67
2022/12/13 05:58:40;;;;;;;17.07;7.37;;;-12.40;94.70;;;;;;4178061;28;20180;-67
2022/12/13 06:00:41;;;;;;;12.93;6.40;;;-12.40;94.50;;;;;;4179204;28;20180;-67
2022/12/13 06:02:43;;;;;;;8.73;5.03;;;-12.30;95.00;;;;;;4177101;28;20204;-67
2022/12/13 06:04:43;;;;;;;8.43;5.00;;;-12.40;94.60;;;;;;4178945;28;20204;-67
2022/12/13 06:06:44;;;;;;;13.87;6.10;;;-12.30;94.20;;;;;;4177748;28;20266;-67
2022/12/13 06:08:45;;;;;;;18.97;6.33;;;-12.30;93.90;;;;;;4177961;28;20331;-67
2022/12/13 06:10:54;;;;;;;11.70;5.33;;;-12.40;93.60;;;;;;4177528;28;20612;-67
2022/12/13 06:12:55;;;;;;;13.52;5.93;;;-12.30;93.90;;;;;;4178201;28;20182;-67
2022/12/13 06:14:57;;;;;;;11.43;6.38;;;-12.30;94.10;;;;;;4178934;28;20211;-67
2022/12/13 06:16:58;;;;;;;11.10;4.90;;;-12.30;94.70;;;;;;4178877;28;20212;-67
2022/12/13 06:18:58;;;;;;;18.10;6.93;;;-12.30;94.70;;;;;;4181695;28;20204;-67
2022/12/13 06:21:04;;;;;;;17.53;6.37;;;-12.20;94.90;;;;;;4195460;28;20182;-67
2022/12/13 06:23:05;;;;;;;10.75;6.00;;;-12.20;94.70;;;;;;4193826;28;20619;-67
2022/12/13 06:25:06;;;;;;;15.37;5.83;;;-12.20;94.20;;;;;;4194374;28;20192;-67
2022/12/13 06:27:07;;;;;;;10.80;6.57;;;-12.10;94.00;;;;;;4195253;28;20222;-67
2022/12/13 06:29:09;;;;;;;14.20;8.07;;;-12.20;93.60;;;;;;4193891;28;20192;-67
2022/12/13 06:31:09;;;;;;;20.02;8.65;;;-12.20;94.40;;;;;;4193935;28;20187;-67
2022/12/13 06:33:10;;;;;;;15.67;8.47;;;-12.10;94.50;;;;;;4193178;28;20199;-67
2022/12/13 06:35:11;;;;;;;16.03;7.73;;;-12.10;94.30;;;;;;4193759;28;20248;-67
2022/12/13 06:37:13;;;;;;;18.60;9.13;;;-12.10;94.00;;;;;;4195064;28;20850;-67
2022/12/13 06:39:14;;;;;;;10.50;5.47;;;-12.20;94.00;;;;;;4193815;28;20541;-67
2022/12/13 06:41:16;;;;;;;9.27;4.97;;;-12.20;94.10;;;;;;4194975;28;20186;-67
2022/12/13 06:43:18;;;;;;;11.18;4.88;;;-12.10;94.10;;;;;;4193030;28;20731;-67
2022/12/13 06:45:19;;;;;;;9.45;4.70;;;-12.10;93.90;;;;;;4194952;28;20180;-67
2022/12/13 06:47:20;;;;;;;7.40;3.70;;;-12.00;93.50;;;;;;4193661;28;20642;-67
2022/12/13 06:49:20;;;;;;;10.83;5.17;;;-12.00;93.10;;;;;;4195056;28;20206;-67
2022/12/13 06:51:21;;;;;;;11.90;5.30;;;-12.10;93.20;;;;;;4194917;28;20195;-67
2022/12/13 06:53:23;;;;;;;9.73;4.23;;;-12.10;93.20;;;;;;4192884;28;20210;-67
2022/12/13 06:55:24;;;;;;;7.40;4.20;;;-12.10;93.30;;;;;;4194454;28;20280;-67
2022/12/13 06:57:25;;;;;;;10.77;4.33;;;-12.00;93.90;;;;;;4194879;28;20211;-67
2022/12/13 06:59:25;;;;;;;7.17;3.87;;;-11.90;93.80;;;;;;4194969;28;20179;-67
2022/12/13 07:01:26;;;;;;;10.33;4.60;;;-11.90;93.90;;;;;;4194844;28;20175;-67
2022/12/13 07:03:28;;;;;;;11.80;4.50;;;-11.90;94.00;;;;;;4194109;28;20249;-67
2022/12/13 07:05:28;;;;;;;8.10;4.45;;;-12.00;94.00;;;;;;4193667;28;20175;-67
2022/12/13 07:07:29;;;;;;;8.20;3.87;;;-12.00;93.60;;;;;;4193632;28;20199;-67
2022/12/13 07:09:31;;;;;;;9.63;4.43;;;-12.00;93.50;;;;;;4194974;28;20206;-66
2022/12/13 07:11:32;;;;;;;8.52;4.28;;;-11.90;93.50;;;;;;4194003;28;20206;-66
2022/12/13 07:13:33;;;;;;;4.10;2.63;;;-11.90;93.20;;;;;;4193410;28;20278;-66
2022/12/13 07:15:33;;;;;;;7.30;3.50;;;-11.90;93.00;;;;;;4193755;28;20188;-66
2022/12/13 07:17:34;;;;;;;5.67;3.70;;;-11.80;93.00;;;;;;4194805;28;20261;-66
2022/12/13 07:19:35;;;;;;;5.83;3.50;;;-11.80;93.00;;;;;;4194983;28;20580;-67
2022/12/13 07:21:37;;;;;;;6.20;3.40;;;-11.70;93.40;;;;;;4193657;28;20176;-66
2022/12/13 07:23:39;;;;;;;6.88;3.35;;;-11.70;93.40;;;;;;4192938;28;20200;-66
2022/12/13 07:25:40;;;;;;;8.02;3.38;;;-11.70;93.50;;;;;;4193502;28;20175;-66
2022/12/13 07:27:41;;;;;;;7.43;3.50;;;-11.60;93.30;;;;;;4194781;28;20823;-66
2022/12/13 07:29:42;;;;;;;6.33;3.57;;;-11.60;93.00;;;;;;4194872;28;20418;-66
2022/12/13 07:31:42;;;;;;;5.83;3.40;;;-11.50;92.80;;;;;;4195041;28;20187;-66
2022/12/13 07:33:43;;;;;;;7.10;3.70;;;-11.40;92.50;;;;;;4192761;28;20210;-66
2022/12/13 07:35:44;;;;;;;5.53;3.80;;;-11.40;92.30;;;;;;4193473;28;20195;-65
2022/12/13 07:37:44;;;;;;;9.00;4.43;;;-11.40;92.20;;;;;;4194758;28;20243;-65
2022/12/13 07:39:45;;;;;;;9.43;4.40;;;-11.20;91.90;;;;;;4184233;28;20183;-65
2022/12/13 07:41:46;;;;;;;7.40;3.93;;;-11.30;91.80;;;;;;4178062;28;20260;-66
2022/12/13 07:43:46;;;;;;;6.37;4.03;;;-11.20;91.80;;;;;;4177303;28;20197;-66
2022/12/13 07:45:47;;;;;;;13.20;7.17;;;-11.20;91.90;;;;;;4178071;28;20177;-66
2022/12/13 07:47:48;;;;;;;9.90;5.70;;;-11.10;92.10;;;;;;4178002;28;20184;-65
2022/12/13 07:49:49;;;;;;;13.05;8.02;;;-11.10;92.30;;;;;;4176691;28;20176;-65
2022/12/13 07:51:49;;;;;;;17.43;9.27;;;-10.90;92.50;;;;;;4177986;28;20187;-65
2022/12/13 07:53:50;;;;;;;21.57;12.27;;;-10.80;92.50;;;;;;4179579;28;20196;-65
2022/12/13 07:55:51;;;;;;;18.40;10.07;;;-10.70;92.60;;;;;;4180966;28;20231;-66
2022/12/13 07:57:52;;;;;;;19.27;8.77;;;-10.70;92.80;;;;;;4181215;28;20189;-66
2022/12/13 07:59:53;;;;;;;9.88;5.38;;;-10.70;93.10;;;;;;4181149;28;20828;-66
2022/12/13 08:01:53;;;;;;;11.80;5.33;;;-10.60;93.20;;;;;;4181102;28;20187;-66
2022/12/13 08:03:55;;;;;;;10.97;5.43;;;-10.40;93.10;;;;;;4180675;28;20291;-66
2022/12/13 08:06:06;;;;;;;10.35;5.57;;;-10.20;93.50;;;;;;4180931;28;20194;-67
2022/12/13 08:08:08;;;;;;;8.93;5.00;;;-9.90;92.80;;;;;;4179781;28;20208;-66
2022/12/13 08:10:09;;;;;;;16.02;6.47;;;-9.80;92.50;;;;;;4180908;28;20186;-67
2022/12/13 08:12:10;;;;;;;16.97;7.77;;;-9.60;92.30;;;;;;4180128;28;20198;-66
2022/12/13 08:14:10;;;;;;;14.17;6.93;;;-9.40;90.90;;;;;;4180775;28;20203;-67
2022/12/13 08:16:16;;;;;;;16.60;7.50;;;-9.30;91.50;;;;;;4180728;28;20212;-67
2022/12/13 08:18:17;;;;;;;18.00;7.32;;;-9.20;92.20;;;;;;4181116;28;20178;-67
2022/12/13 08:20:18;;;;;;;12.50;7.27;;;-9.00;92.30;;;;;;4181040;28;20176;-67
2022/12/13 08:22:19;;;;;;;11.07;6.03;;;-8.80;91.40;;;;;;4179213;28;20191;-66
2022/12/13 08:24:20;;;;;;;10.00;4.90;;;-8.80;91.20;;;;;;4180982;28;20555;-66
2022/12/13 08:26:22;;;;;;;9.67;5.07;;;-8.80;91.20;;;;;;4179848;28;20907;-66
2022/12/13 08:28:24;;;;;;;10.27;4.32;;;-8.70;91.00;;;;;;4180789;28;20176;-67
2022/12/13 08:30:24;;;;;;;9.38;4.82;;;-8.70;91.70;;;;;;4179537;28;20227;-66
2022/12/13 08:32:26;;;;;;;12.23;5.83;;;-8.50;91.70;;;;;;4179902;28;20658;-67
2022/12/13 08:34:26;;;;;;;13.63;7.05;;;-8.30;91.30;;;;;;4180602;28;20246;-67
2022/12/13 08:36:27;;;;;;;17.70;7.90;;;-8.10;91.60;;;;;;4180578;28;20670;-68
2022/12/13 08:38:28;;;;;;;15.80;7.77;;;-7.80;90.60;;;;;;4179227;28;20659;-67
2022/12/13 08:40:28;;;;;;;12.07;5.47;;;-7.70;90.70;;;;;;4179133;28;20291;-67
2022/12/13 08:42:29;;;;;;;14.13;7.10;;;-7.60;91.60;;;;;;4179826;28;20198;-68
2022/12/13 08:44:30;;;;;;;17.77;7.93;;;-7.40;90.50;;;;;;4178481;28;20200;-66
2022/12/13 08:46:30;;;;;;;20.20;8.60;;;-7.20;87.70;;;;;;4183924;28;20266;-65
2022/12/13 08:48:31;;;;;;;15.80;8.40;;;-7.20;88.10;;;;;;4192763;28;20179;-72
2022/12/13 08:50:32;;;;;;;18.60;7.80;;;-7.00;90.20;;;;;;4194642;28;20707;-74
2022/12/13 08:52:34;;;;;;;18.23;8.23;;;-6.90;90.60;;;;;;4196340;28;20195;-66
2022/12/13 08:54:35;;;;;;;18.63;9.27;;;-6.70;90.40;;;;;;4196212;28;20567;-66
2022/12/13 08:56:36;;;;;;;21.33;8.90;;;-6.80;89.50;;;;;;4199650;28;20482;-65
2022/12/13 08:58:38;;;;;;;16.50;8.67;;;-6.60;91.40;;;;;;4197166;28;20730;-67
2022/12/13 09:00:40;;;;;;;20.47;8.83;;;-6.30;90.80;;;;;;4177008;28;20658;-67
2022/12/13 09:02:41;;;;;;;23.80;11.17;;;-6.10;91.70;;;;;;4195650;28;20784;-67
2022/12/13 09:04:43;;;;;;;25.13;11.17;;;-6.10;84.80;;;;;;4195577;28;20519;-68
2022/12/13 09:06:43;;;;;;;26.40;11.03;;;-5.90;86.80;;;;;;4209326;28;20417;-67
2022/12/13 09:08:44;;;;;;;20.77;10.60;;;-5.70;91.50;;;;;;4196150;28;20461;-67
2022/12/13 09:10:45;;;;;;;31.37;13.97;;;-5.60;91.50;;;;;;4195623;28;20198;-66
2022/12/13 09:12:46;;;;;;;29.53;14.33;;;-5.50;88.10;;;;;;4195226;28;20883;-67
2022/12/13 09:14:46;;;;;;;23.20;11.87;;;-5.30;90.30;;;;;;4198431;28;20206;-67
2022/12/13 09:16:47;;;;;;;20.67;9.97;;;-5.10;90.70;;;;;;4203668;28;20286;-66
2022/12/13 09:18:49;;;;;;;41.47;19.23;;;-4.90;91.50;;;;;;4198008;28;20180;-66
2022/12/13 09:20:50;;;;;;;50.73;23.93;;;-4.70;86.40;;;;;;4197727;28;20687;-68
2022/12/13 09:22:51;;;;;;;52.40;22.47;;;-4.70;85.50;;;;;;4197704;28;20458;-68
2022/12/13 09:24:51;;;;;;;56.77;23.63;;;-4.50;90.70;;;;;;4196583;28;21012;-67
2022/12/13 09:26:52;;;;;;;62.47;24.77;;;-4.40;88.40;;;;;;4195324;28;20235;-67
2022/12/13 09:28:53;;;;;;;51.57;24.13;;;-4.10;88.30;;;;;;4199081;28;20193;-67
2022/12/13 09:30:55;;;;;;;54.13;22.70;;;-4.10;86.60;;;;;;4186686;28;20187;-66
2022/12/13 09:32:55;;;;;;;43.17;18.50;;;-4.10;89.90;;;;;;4184989;28;20187;-66
2022/12/13 09:34:56;;;;;;;43.43;18.47;;;-3.80;90.60;;;;;;4198629;28;20483;-66
2022/12/13 09:36:57;;;;;;;42.27;18.37;;;-3.60;90.80;;;;;;4194264;28;20240;-66
2022/12/13 09:38:58;;;;;;;42.40;20.00;;;-3.40;91.30;;;;;;4187715;28;20595;-67
2022/12/13 09:41:09;;;;;;;41.37;18.67;;;-3.40;86.90;;;;;;4194015;28;20286;-67
2022/12/13 09:43:19;;;;;;;35.87;17.43;;;-3.30;85.40;;;;;;4199420;28;20771;-65
2022/12/13 09:45:21;;;;;;;38.77;19.80;;;-3.10;91.50;;;;;;4201278;28;20504;-67
2022/12/13 09:47:31;;;;;;;31.67;17.00;;;-2.80;90.30;;;;;;4200768;28;20443;-67
2022/12/13 09:49:38;;;;;;;42.03;17.90;;;-2.60;86.50;;;;;;4195191;28;20449;-65
2022/12/13 09:51:39;;;;;;;41.07;20.37;;;-2.70;79.20;;;;;;4197228;28;20487;-66
2022/12/13 09:53:48;;;;;;;25.27;13.90;;;-2.80;80.20;;;;;;4193109;28;20968;-67
2022/12/13 09:55:51;;;;;;;36.53;17.30;;;-2.70;82.90;;;;;;4205147;28;20170;-68
2022/12/13 09:57:52;;;;;;;31.70;15.67;;;-2.30;92.30;;;;;;4196497;28;20436;-66
2022/12/13 09:59:53;;;;;;;35.90;18.17;;;-2.00;90.10;;;;;;4204427;28;20425;-67
2022/12/13 10:01:56;;;;;;;33.33;15.97;;;-1.90;88.90;;;;;;4193361;28;20179;-67
2022/12/13 10:04:00;;;;;;;36.90;16.00;;;-1.60;86.40;;;;;;4196559;28;20536;-67
2022/12/13 10:06:14;;;;;;;43.67;22.60;;;-1.50;73.10;;;;;;4193803;28;20458;-68
2022/12/13 10:08:23;;;;;;;31.07;15.43;;;-1.40;87.60;;;;;;4210066;28;20475;-66
2022/12/13 10:10:25;;;;;;;37.00;17.97;;;-1.00;89.70;;;;;;4193732;28;20446;-66
2022/12/13 10:12:27;;;;;;;51.83;22.20;;;-0.50;82.40;;;;;;4202446;28;20833;-68
2022/12/13 10:14:39;;;;;;;54.27;22.73;;;-0.20;82.00;;;;;;4183694;28;20528;-67
2022/12/13 10:16:46;;;;;;;29.97;13.10;;;0.00;78.10;;;;;;4206694;28;20472;-66
2022/12/13 10:18:47;;;;;;;23.87;11.47;;;-0.10;70.90;;;;;;4196735;28;20419;-67
2022/12/13 10:20:49;;;;;;;15.43;8.67;;;0.00;78.60;;;;;;4197908;28;20824;-67
2022/12/13 10:22:49;;;;;;;13.30;7.63;;;0.30;74.90;;;;;;4198710;28;20189;-66
2022/12/13 10:24:53;;;;;;;12.57;7.43;;;0.30;69.20;;;;;;4194808;28;20444;-65
2022/12/13 10:26:57;;;;;;;14.50;7.73;;;0.40;68.50;;;;;;4194966;28;20180;-67
2022/12/13 10:29:05;;;;;;;11.87;6.90;;;0.10;72.00;;;;;;4195474;28;20946;-67
2022/12/13 10:31:07;;;;;;;10.53;6.07;;;0.30;75.50;;;;;;4194597;28;20422;-68
2022/12/13 10:33:32;;;;;;;12.23;6.93;;;0.30;73.90;;;;;;4192318;28;20459;-69
2022/12/13 10:35:36;;;;;;;10.03;5.67;;;0.50;69.80;;;;;;4193439;28;20450;-67